Flight Track Log - Related Links

Times and Time Zones

All times are in EDT time to prevent confusion due to time zone crossing. See the DAL1981 flight status page for this flight to view local times or setup timezone preferences in your user account.

Time Position Orientation Groundspeed Altitude Reporting Facility
EDT Latitude Longitude Course Direction KTS MPH feet Rate Location/Type
Sat 04:02:56 PM 38.7167 -121.5833 78° East 158 182 800  Level Northern Cal TRACON
Sat 04:03:56 PM 38.7667 -121.5667 15° North 203 234 1,700 1,500 Climbing Northern Cal TRACON
Sat 04:04:56 PM 38.7667 -121.4833 90° East 274 315 3,800 2,316 Climbing Northern Cal TRACON
Sat 04:05:00 PM 38.4968 -121.2555 80° East  Level FlightAware Approximate
Sat 04:05:50 PM 38.7667 -121.4000 90° East 285 328 6,100  Level Northern Cal TRACON
Sat 04:06:00 PM 38.5338 -121.0980 76° East  Level FlightAware Approximate
Sat 04:06:56 PM 38.7667 -121.2833 90° East 303 349 9,000  Level Northern Cal TRACON
Sat 04:07:00 PM 38.5633 -120.9374 78° East  Level FlightAware Approximate
Sat 04:07:56 PM 38.7667 -121.1667 90° East 319 367 10,700  Level Northern Cal TRACON
Sat 04:08:00 PM 38.5902 -120.7760 78° East  Level FlightAware Approximate
Sat 04:09:17 PM 38.7525 -121.0081 96° East 363 418 12,200  Level Oakland Center
Sat 04:10:19 PM 38.7469 -120.8661 93° East 388 447 14,100 1,854 Climbing Oakland Center
Sat 04:11:20 PM 38.7403 -120.7211 93° East 401 461 16,000 1,721 Climbing Oakland Center
Sat 04:12:21 PM 38.7336 -120.5711 93° East 416 479 17,600 1,623 Climbing Oakland Center
Sat 04:13:22 PM 38.7261 -120.4169 94° East 431 496 19,300 1,512 Climbing Oakland Center
Sat 04:14:24 PM 38.7192 -120.2606 93° East 439 505 20,700 1,268 Climbing Oakland Center
Sat 04:15:25 PM 38.7383 -120.1044 81° East 450 518 21,900 1,131 Climbing Oakland Center
Sat 04:16:26 PM 38.7692 -119.9472 76° East 455 524 23,000 1,073 Climbing Oakland Center
Sat 04:17:28 PM 38.8019 -119.7769 76° East 466 536 24,100 1,024 Climbing Oakland Center
Sat 04:18:29 PM 38.8839 -119.6522 50° Northeast 467 537 25,100 1,082 Climbing Oakland Center
Sat 04:19:30 PM 39.0144 -119.5422 33° Northeast 467 537 26,300 1,024 Climbing Oakland Center
Sat 04:20:32 PM 39.1244 -119.4472 34° Northeast 474 545 27,200 829 Climbing Oakland Center
Sat 04:21:33 PM 39.2350 -119.3522 34° Northeast 476 548 28,000 683 Climbing Oakland Center
Sat 04:22:35 PM 39.3478 -119.2553 34° Northeast 482 555 28,600 732 Climbing Oakland Center
Sat 04:23:36 PM 39.4619 -119.1572 34° Northeast 486 559 29,500 885 Climbing Oakland Center
Sat 04:24:37 PM 39.5744 -119.0553 35° Northeast 487 560 30,400 829 Climbing Oakland Center
Sat 04:25:39 PM 39.6447 -118.8972 60° Northeast 510 587 31,200 732 Climbing Oakland Center
Sat 04:26:40 PM 39.7000 -118.7267 67° East 505 581 31,900 683 Climbing Oakland Center
Sat 04:27:42 PM 39.7553 -118.5564 67° East 505 581 32,600 634 Climbing Oakland Center
Sat 04:28:43 PM 39.8089 -118.3897 67° East 501 577 33,200 585 Climbing Oakland Center
Sat 04:29:45 PM 39.8628 -118.2211 67° East 501 577 33,800 585 Climbing Oakland Center
Sat 04:30:46 PM 39.9158 -118.0536 68° East 500 575 34,400 492 Climbing Oakland Center
Sat 04:31:47 PM 39.9681 -117.8881 68° East 495 570 34,800 293 Climbing Oakland Center
Sat 04:32:49 PM 40.0211 -117.7211 67° East 498 573 35,000 98 Climbing Oakland Center
Sat 04:33:50 PM 40.0842 -117.5219 67° East 494 568 35,000  Level Oakland Center
Sat 04:34:46 PM 40.1292 -117.3747 68° East 497 572 35,000  Level Salt Lake Center
Sat 04:35:47 PM 40.1783 -117.2164 68° East 493 567 35,000  Level Salt Lake Center
Sat 04:36:50 PM 40.2356 -117.0303 68° East 496 571 35,000  Level Salt Lake Center
Sat 04:37:51 PM 40.2836 -116.8708 68° East 499 574 35,000  Level Salt Lake Center
Sat 04:38:52 PM 40.3400 -116.6839 68° East 506 582 35,000  Level Salt Lake Center
Sat 04:39:54 PM 40.3897 -116.5258 68° East 497 572 35,000  Level Salt Lake Center
Sat 04:40:56 PM 40.4453 -116.3375 69° East 499 574 35,000  Level Salt Lake Center
Sat 04:41:57 PM 40.4933 -116.1758 69° East 498 573 35,000  Level Salt Lake Center
Sat 04:42:59 PM 40.5514 -115.9839 68° East 507 583 35,000  Level Salt Lake Center
Sat 04:44:00 PM 40.5983 -115.8222 69° East 498 573 35,000  Level Salt Lake Center
Sat 04:45:02 PM 40.6453 -115.6578 69° East 502 578 35,000  Level Salt Lake Center
Sat 04:46:04 PM 40.7000 -115.4669 69° East 499 574 35,000  Level Salt Lake Center
Sat 04:47:05 PM 40.7478 -115.3033 69° East 500 575 35,000  Level Salt Lake Center
Sat 04:48:07 PM 40.8022 -115.1122 69° East 500 575 35,000  Level Salt Lake Center
Sat 04:49:09 PM 40.8506 -114.9494 69° East 498 573 35,000  Level Salt Lake Center
Sat 04:50:10 PM 40.9061 -114.7597 69° East 497 572 35,000  Level Salt Lake Center
Sat 04:51:12 PM 40.9514 -114.5978 70° East 494 568 35,000  Level Salt Lake Center
Sat 04:52:14 PM 41.0000 -114.4222 70° East 493 567 35,000  Level Salt Lake Center
Sat 04:53:15 PM 41.0456 -114.2522 70° East 492 566 35,000  Level Salt Lake Center
Sat 04:54:17 PM 41.0936 -114.0808 70° East 495 570 35,000  Level Salt Lake Center
Sat 04:55:19 PM 41.1397 -113.9100 70° East 494 568 35,000  Level Salt Lake Center
Sat 04:56:20 PM 41.1861 -113.7372 70° East 496 571 35,000  Level Salt Lake Center
Sat 04:57:22 PM 41.2428 -113.5286 70° East 500 575 35,000  Level Salt Lake Center
Sat 04:58:24 PM 41.2883 -113.3547 71° East 500 575 35,000  Level Salt Lake Center
Sat 04:59:25 PM 41.3344 -113.1783 71° East 503 579 35,000  Level Salt Lake Center
Sat 05:00:27 PM 41.3828 -113.0019 70° East 507 583 35,000  Level Salt Lake Center
Sat 05:01:29 PM 41.4286 -112.8247 71° East 506 582 35,000  Level Salt Lake Center
Sat 05:02:30 PM 41.4742 -112.6467 71° East 508 585 35,000  Level Salt Lake Center
Sat 05:03:32 PM 41.5192 -112.4706 71° East 501 577 35,000  Level Salt Lake Center
Sat 05:04:34 PM 41.5661 -112.2933 70° East 503 579 35,000 49 Level Salt Lake Center
Sat 05:05:35 PM 41.6189 -112.0794 72° East 503 579 35,100  Climbing Salt Lake Center
Sat 05:06:37 PM 41.6636 -111.9025 71° East 501 577 35,000 -48 Descending Salt Lake Center
Sat 05:07:39 PM 41.7067 -111.7322 71° East 484 557 35,000  Level Salt Lake Center
Sat 05:08:40 PM 41.7489 -111.5603 72° East 484 557 35,000  Level Salt Lake Center
Sat 05:09:42 PM 41.7925 -111.3836 72° East 497 572 35,000  Level Salt Lake Center
Sat 05:10:44 PM 41.8350 -111.2094 72° East 494 568 35,000  Level Salt Lake Center
Sat 05:11:45 PM 41.8778 -111.0339 72° East 495 570 35,000  Level Salt Lake Center
Sat 05:12:47 PM 41.9258 -110.8342 72° East 499 574 35,000 48 Level Salt Lake Center
Sat 05:13:49 PM 41.9658 -110.6633 72° East 501 577 35,100 49 Climbing Salt Lake Center
Sat 05:14:50 PM 42.0136 -110.4656 72° East 498 573 35,100 -49 Level Salt Lake Center
Sat 05:15:52 PM 42.0531 -110.2950 73° East 498 573 35,000 -48 Descending Salt Lake Center
Sat 05:16:54 PM 42.0933 -110.1239 72° East 501 577 35,000  Level Salt Lake Center
Sat 05:17:56 PM 42.1403 -109.9214 73° East 505 581 35,000  Level Salt Lake Center
Sat 05:18:57 PM 42.1817 -109.7442 72° East 513 590 35,000  Level Salt Lake Center
Sat 05:21:01 PM 42.2689 -109.3578 73° East 516 594 35,000  Level Salt Lake Center
Sat 05:22:02 PM 42.3144 -109.1531 73° East 510 587 35,000  Level Salt Lake Center
Sat 05:23:04 PM 42.3544 -108.9772 73° East 510 587 35,000 48 Level Salt Lake Center
Sat 05:24:06 PM 42.3936 -108.7967 74° East 517 595 35,100  Climbing Salt Lake Center
Sat 05:25:08 PM 42.4397 -108.5883 73° East 518 596 35,000 -49 Descending Salt Lake Center
Sat 05:26:09 PM 42.4775 -108.4122 74° East 511 588 35,000  Level Salt Lake Center
Sat 05:27:11 PM 42.5211 -108.2067 74° East 509 586 35,000  Level Salt Lake Center
Sat 05:28:13 PM 42.5564 -108.0383 74° East 494 568 35,000  Level Salt Lake Center
Sat 05:29:15 PM 42.5911 -107.8694 74° East 489 563 35,000 49 Level Salt Lake Center
Sat 05:30:16 PM 42.6325 -107.6747 74° East 485 558 35,100 49 Climbing Salt Lake Center
Sat 05:31:18 PM 42.6678 -107.5078 74° East 483 556 35,100 -48 Level Salt Lake Center
Sat 05:32:20 PM 42.7061 -107.3136 75° East 479 551 35,000 -48 Descending Salt Lake Center
Sat 05:33:22 PM 42.7328 -107.1503 77° East 470 541 35,000  Level Salt Lake Center
Sat 05:34:24 PM 42.7214 -106.9581 95° East 458 527 35,000  Level Salt Lake Center
Sat 05:35:03 PM 42.7122 -106.8486 96° East 455 524 35,000  Level Denver Center
Sat 05:36:05 PM 42.6992 -106.6864 96° East 453 521 35,000  Level Denver Center
Sat 05:37:07 PM 42.6861 -106.5006 95° East 444 511 35,000  Level Denver Center
Sat 05:38:09 PM 42.6747 -106.3431 96° East 439 505 35,000 -48 Level Denver Center
Sat 05:39:11 PM 42.6617 -106.1594 95° East 438 504 34,900  Descending Denver Center
Sat 05:40:13 PM 42.6514 -105.9983 95° East 446 513 35,000 49 Climbing Denver Center
Sat 05:41:14 PM 42.6361 -105.8117 96° East 445 512 35,000  Level Denver Center
Sat 05:42:16 PM 42.6053 -105.6550 105° East 446 513 35,000 -1,548 Level Denver Center
Sat 05:43:18 PM 42.5758 -105.4981 104° East 450 518 31,800  Descending Denver Center
Sat 05:44:20 PM 42.5931 -105.3092 83° East 456 525 35,000 1,422 Climbing Denver Center
Sat 05:45:33 PM 42.6303 -105.1497 72° East 461 531 35,000  Level Denver Center
Sat 05:46:36 PM 42.6811 -104.9333 72° East 467 537 35,000  Level Denver Center
Sat 05:47:37 PM 42.7447 -104.7753 61° Northeast 496 571 35,000  Level Denver Center
Sat 05:48:51 PM 42.8378 -104.6000 54° Northeast 503 579 35,000  Level Denver Center
Sat 05:49:53 PM 42.9203 -104.4150 59° Northeast 507 583 35,000  Level Denver Center
Sat 05:50:55 PM 42.9950 -104.2353 60° Northeast 496 571 35,000  Level Denver Center
Sat 05:51:57 PM 43.0583 -104.0811 61° Northeast 489 563 35,000  Level Denver Center
Sat 05:52:58 PM 43.1339 -103.9069 59° Northeast 480 552 35,000  Level Denver Center
Sat 05:54:00 PM 43.1983 -103.7578 59° Northeast 478 550 35,000  Level Denver Center
Sat 05:55:02 PM 43.2650 -103.6092 58° Northeast 476 548 35,000  Level Denver Center
Sat 05:56:04 PM 43.3178 -103.4142 70° East 492 566 35,000  Level Denver Center
Sat 05:57:05 PM 43.3481 -103.2367 77° East 495 570 35,000  Level Denver Center
Sat 05:58:07 PM 43.3844 -103.0300 76° East 498 573 35,000 48 Level Denver Center
Sat 05:59:09 PM 43.4153 -102.8567 76° East 492 566 35,100  Climbing Denver Center
Sat 06:00:10 PM 43.4494 -102.6553 77° East 486 559 35,000 -49 Descending Denver Center
Sat 06:01:12 PM 43.4786 -102.4850 77° East 479 551 35,000 -48 Level Denver Center
Sat 06:02:14 PM 43.5053 -102.3133 78° East 480 552 34,900  Descending Denver Center
Sat 06:03:28 PM 43.5397 -102.1153 76° East 480 552 35,000 44 Climbing Denver Center
Sat 06:04:29 PM 43.5742 -101.9072 77° East 491 565 35,000  Level Denver Center
Sat 06:05:31 PM 43.6033 -101.7203 78° East 501 577 35,000  Level Denver Center
Sat 06:06:33 PM 43.6397 -101.4947 77° East 504 580 35,000  Level Denver Center
Sat 06:07:34 PM 43.6692 -101.3064 78° East 503 579 35,000  Level Denver Center
Sat 06:08:36 PM 43.6992 -101.1200 77° East 501 577 35,000  Level Denver Center
Sat 06:09:49 PM 43.7281 -100.9308 78° East 506 582 35,000  Level Denver Center
Sat 06:10:51 PM 43.7628 -100.7064 78° East 500 575 35,000  Level Denver Center
Sat 06:11:55 PM 43.7914 -100.5222 78° East 499 574 35,000  Level Minneapolis Center
Sat 06:12:56 PM 43.8250 -100.2983 78° East 498 573 35,000  Level Minneapolis Center
Sat 06:13:58 PM 43.8519 -100.1117 79° East 497 572 35,000  Level Minneapolis Center
Sat 06:14:59 PM 43.8792 -99.9275 78° East 495 570 35,000  Level Minneapolis Center
Sat 06:16:01 PM 43.9053 -99.7403 79° East 495 570 35,000  Level Minneapolis Center
Sat 06:17:02 PM 43.9314 -99.5544 79° East 494 568 35,000  Level Minneapolis Center
Sat 06:18:04 PM 43.9575 -99.3708 79° East 491 565 35,000  Level Minneapolis Center
Sat 06:19:17 PM 43.9825 -99.1883 79° East 486 559 35,000  Level Minneapolis Center
Sat 06:20:19 PM 44.0128 -98.9703 79° East 484 557 35,000  Level Minneapolis Center
Sat 06:21:21 PM 44.0417 -98.7547 79° East 477 549 35,000  Level Minneapolis Center
Sat 06:22:22 PM 44.0669 -98.5719 79° East 476 548 35,000  Level Minneapolis Center
Sat 06:23:24 PM 44.0894 -98.3906 80° East 476 548 35,000  Level Minneapolis Center
Sat 06:24:25 PM 44.1136 -98.2097 79° East 477 549 35,000  Level Minneapolis Center
Sat 06:25:26 PM 44.1367 -98.0292 80° East 476 548 35,000  Level Minneapolis Center
Sat 06:26:28 PM 44.1594 -97.8464 80° East 479 551 35,000  Level Minneapolis Center
Sat 06:27:29 PM 44.1817 -97.6644 80° East 479 551 35,000  Level Minneapolis Center
Sat 06:28:31 PM 44.2039 -97.4817 80° East 480 552 35,000  Level Minneapolis Center
Sat 06:29:32 PM 44.2267 -97.3008 80° East 477 549 35,000 -244 Level Minneapolis Center
Sat 06:30:34 PM 44.2522 -97.0850 81° East 471 542 34,500 -732 Descending Minneapolis Center
Sat 06:31:35 PM 44.2733 -96.9056 81° East 470 541 33,500 -927 Descending Minneapolis Center
Sat 06:32:37 PM 44.2947 -96.7239 81° East 474 545 32,600 -1,368 Descending Minneapolis Center
Sat 06:33:51 PM 44.3156 -96.5464 81° East 464 534 30,400 -2,178 Descending Minneapolis Center
Sat 06:34:52 PM 44.3397 -96.3381 81° East 450 518 27,700 -3,024 Descending Minneapolis Center
Sat 06:35:54 PM 44.3592 -96.1608 81° East 454 522 24,200 -1,805 Descending Minneapolis Center
Sat 06:36:55 PM 44.3892 -95.9822 77° East 463 533 24,000 -1,171 Descending Minneapolis Center
Sat 06:37:57 PM 44.4194 -95.8078 76° East 461 531 21,800 -2,195 Descending Minneapolis Center
Sat 06:38:58 PM 44.4494 -95.6361 76° East 457 526 19,500 -1,561 Descending Minneapolis Center
Sat 06:40:00 PM 44.4769 -95.4722 77° East 442 509 18,600 -844 Descending Minneapolis Center
Sat 06:41:13 PM 44.5047 -95.3081 77° East 436 502 17,600 -980 Descending Minneapolis Center
Sat 06:42:27 PM 44.5436 -95.0808 76° East 431 496 16,200 -1,095 Descending Minneapolis Center
Sat 06:43:41 PM 44.5797 -94.8589 77° East 421 484 14,900 -1,015 Descending Minneapolis Center
Sat 06:44:43 PM 44.6064 -94.6986 77° East 422 486 13,900 -976 Descending Minneapolis Center
Sat 06:45:44 PM 44.6339 -94.5328 77° East 425 489 12,900 -780 Descending Minneapolis Center
Sat 06:46:46 PM 44.6583 -94.3742 78° East 417 480 12,300 -732 Descending Minneapolis Center
Sat 06:47:47 PM 44.6850 -94.2167 77° East 417 480 11,400 -829 Descending Minneapolis Center
Sat 06:48:49 PM 44.7128 -94.0664 75° East 394 453 10,600 -774 Descending Minneapolis Center
Sat 06:49:51 PM 44.7483 -93.9400 68° East 346 398 9,800 -927 Descending Minneapolis Center
Sat 06:50:52 PM 44.8250 -93.8381 43° Northeast 312 359 8,700 -1,024 Descending Minneapolis Center
Sat 06:51:54 PM 44.8808 -93.7617 44° Northeast 281 323 7,700 -756 Descending Minneapolis Center
Sat 06:53:07 PM 44.9336 -93.6903 44° Northeast 264 304 7,000 -978 Descending Minneapolis Center
Sat 06:54:09 PM 44.9872 -93.5992 50° Northeast 254 292 5,500 -968 Descending Minneapolis Center
Sat 06:55:11 PM 44.9961 -93.5014 83° East 251 289 5,000 -484 Descending Minneapolis Center

Login

Don't have an account? Register now (free) for customized features, flight alerts, and more!